CU-0043 weather

Public forecast

Using degrees Celsius for public forecast. Weather courtesy of forecast.io.

Closest aviation weather report (METAR) to Vertientes Airport

Closest report is Ignacio Agramonte International Airport, 18.5 nm (34.3 km) NE. Retrieved 2020/08/14 10:50 UTC (15 minutes ago):

MUCM 141050Z 06006KT 8000 FEW020 25/25 Q1014

Closest aviation forecast (TAF) to Vertientes Airport

Forecast is more than 12 hours old.

Closest forecast is Ignacio Agramonte International Airport, 18.5 nm (34.3 km) NE. Retrieved 2020/08/13 18:05 UTC (17 hours ago):

TAF MUCM 131700Z 1318/1418 06012KT 9000 SCT018 BECMG 1403/1404 VRB03KT BECMG 1414/1417 09012KT